sensor_id;sensor_type;location;lat;lon;timestamp;pressure;altitude;pressure_sealevel;temperature;humidity
37238;BME280;23129;49.662;8.448;2023-02-23T00:02:18;100372.50;;;9.40;85.48
37238;BME280;23129;49.662;8.448;2023-02-23T00:04:47;100372.53;;;9.38;86.18
37238;BME280;23129;49.662;8.448;2023-02-23T00:07:15;100375.13;;;9.40;87.01
37238;BME280;23129;49.662;8.448;2023-02-23T00:09:46;100372.53;;;9.38;87.33
37238;BME280;23129;49.662;8.448;2023-02-23T00:12:16;100370.75;;;9.39;87.94
37238;BME280;23129;49.662;8.448;2023-02-23T00:14:46;100375.13;;;9.40;88.44
37238;BME280;23129;49.662;8.448;2023-02-23T00:17:15;100371.59;;;9.41;89.17
37238;BME280;23129;49.662;8.448;2023-02-23T00:19:46;100370.75;;;9.41;89.88
37238;BME280;23129;49.662;8.448;2023-02-23T00:22:15;100366.38;;;9.41;90.47
37238;BME280;23129;49.662;8.448;2023-02-23T00:24:44;100373.31;;;9.42;90.77
37238;BME280;23129;49.662;8.448;2023-02-23T00:27:15;100375.91;;;9.44;91.14
37238;BME280;23129;49.662;8.448;2023-02-23T00:29:46;100370.63;;;9.45;91.69
37238;BME280;23129;49.662;8.448;2023-02-23T00:32:16;100384.53;;;9.47;92.17
37238;BME280;23129;49.662;8.448;2023-02-23T00:34:46;100374.97;;;9.46;92.67
37238;BME280;23129;49.662;8.448;2023-02-23T00:37:16;100368.91;;;9.44;93.08
37238;BME280;23129;49.662;8.448;2023-02-23T00:39:48;100372.44;;;9.42;93.58
37238;BME280;23129;49.662;8.448;2023-02-23T00:42:17;100370.75;;;9.41;94.10
37238;BME280;23129;49.662;8.448;2023-02-23T00:44:46;100373.38;;;9.41;94.28
37238;BME280;23129;49.662;8.448;2023-02-23T00:47:15;100375.94;;;9.42;94.66
37238;BME280;23129;49.662;8.448;2023-02-23T00:49:44;100369.81;;;9.43;95.00
37238;BME280;23129;49.662;8.448;2023-02-23T00:52:13;100375.06;;;9.43;95.12
37238;BME280;23129;49.662;8.448;2023-02-23T00:54:41;100378.47;;;9.45;95.51
37238;BME280;23129;49.662;8.448;2023-02-23T00:57:10;100364.50;;;9.46;95.81
37238;BME280;23129;49.662;8.448;2023-02-23T00:59:39;100362.72;;;9.48;96.18
37238;BME280;23129;49.662;8.448;2023-02-23T01:02:08;100369.59;;;9.51;96.42
37238;BME280;23129;49.662;8.448;2023-02-23T01:04:36;100372.16;;;9.54;96.73
37238;BME280;23129;49.662;8.448;2023-02-23T01:07:05;100359.03;;;9.55;96.82
37238;BME280;23129;49.662;8.448;2023-02-23T01:09:34;100367.72;;;9.57;97.17
37238;BME280;23129;49.662;8.448;2023-02-23T01:12:04;100372.91;;;9.59;97.45
37238;BME280;23129;49.662;8.448;2023-02-23T01:14:34;100370.25;;;9.60;97.93
37238;BME280;23129;49.662;8.448;2023-02-23T01:17:05;100369.34;;;9.62;98.37
37238;BME280;23129;49.662;8.448;2023-02-23T01:19:35;100374.59;;;9.62;98.54
37238;BME280;23129;49.662;8.448;2023-02-23T01:22:04;100372.88;;;9.60;99.32
37238;BME280;23129;49.662;8.448;2023-02-23T01:24:32;100365.91;;;9.59;99.34
37238;BME280;23129;49.662;8.448;2023-02-23T01:27:04;100371.13;;;9.59;99.73
37238;BME280;23129;49.662;8.448;2023-02-23T01:29:33;100365.91;;;9.59;100.00
37238;BME280;23129;49.662;8.448;2023-02-23T01:32:03;100371.97;;;9.62;100.00
37238;BME280;23129;49.662;8.448;2023-02-23T01:34:32;100365.81;;;9.63;100.00
37238;BME280;23129;49.662;8.448;2023-02-23T01:37:00;100362.34;;;9.64;100.00
37238;BME280;23129;49.662;8.448;2023-02-23T01:39:31;100364.94;;;9.64;100.00
37238;BME280;23129;49.662;8.448;2023-02-23T01:41:59;100360.59;;;9.63;100.00
37238;BME280;23129;49.662;8.448;2023-02-23T01:45:18;100360.72;;;9.58;100.00
37238;BME280;23129;49.662;8.448;2023-02-23T01:47:54;100356.38;;;9.57;100.00
37238;BME280;23129;49.662;8.448;2023-02-23T01:50:27;100357.28;;;9.56;100.00
37238;BME280;23129;49.662;8.448;2023-02-23T01:52:56;100361.59;;;9.57;100.00
37238;BME280;23129;49.662;8.448;2023-02-23T01:55:26;100359.03;;;9.55;100.00
37238;BME280;23129;49.662;8.448;2023-02-23T01:58:06;100360.81;;;9.53;100.00
37238;BME280;23129;49.662;8.448;2023-02-23T02:00:38;100353.88;;;9.52;100.00
37238;BME280;23129;49.662;8.448;2023-02-23T02:03:13;100353.88;;;9.52;100.00
37238;BME280;23129;49.662;8.448;2023-02-23T02:05:46;100343.41;;;9.52;100.00
37238;BME280;23129;49.662;8.448;2023-02-23T02:08:17;100350.34;;;9.53;100.00
37238;BME280;23129;49.662;8.448;2023-02-23T02:10:47;100352.16;;;9.51;100.00
37238;BME280;23129;49.662;8.448;2023-02-23T02:13:24;100356.53;;;9.51;100.00
37238;BME280;23129;49.662;8.448;2023-02-23T02:16:26;100353.97;;;9.48;100.00
37238;BME280;23129;49.662;8.448;2023-02-23T02:19:33;100345.25;;;9.47;100.00
37238;BME280;23129;49.662;8.448;2023-02-23T02:22:25;100350.50;;;9.47;100.00
37238;BME280;23129;49.662;8.448;2023-02-23T02:31:35;100346.28;;;9.42;100.00
37238;BME280;23129;49.662;8.448;2023-02-23T02:37:42;100335.03;;;9.38;100.00
37238;BME280;23129;49.662;8.448;2023-02-23T02:40:21;100341.97;;;9.39;100.00
37238;BME280;23129;49.662;8.448;2023-02-23T02:43:00;100338.47;;;9.40;100.00
37238;BME280;23129;49.662;8.448;2023-02-23T02:45:44;100330.63;;;9.40;100.00
37238;BME280;23129;49.662;8.448;2023-02-23T02:48:26;100334.09;;;9.41;100.00
37238;BME280;23129;49.662;8.448;2023-02-23T02:51:03;100334.03;;;9.42;100.00
37238;BME280;23129;49.662;8.448;2023-02-23T02:53:43;100331.41;;;9.42;100.00
37238;BME280;23129;49.662;8.448;2023-02-23T02:56:15;100326.19;;;9.42;100.00
37238;BME280;23129;49.662;8.448;2023-02-23T02:58:46;100333.16;;;9.43;100.00
37238;BME280;23129;49.662;8.448;2023-02-23T03:01:18;100338.41;;;9.43;100.00
37238;BME280;23129;49.662;8.448;2023-02-23T03:04:21;100335.81;;;9.42;100.00
37238;BME280;23129;49.662;8.448;2023-02-23T03:07:13;100330.53;;;9.43;100.00
37238;BME280;23129;49.662;8.448;2023-02-23T03:10:11;100329.72;;;9.41;100.00
37238;BME280;23129;49.662;8.448;2023-02-23T03:13:10;100325.34;;;9.42;100.00
37238;BME280;23129;49.662;8.448;2023-02-23T03:16:14;100331.41;;;9.42;100.00
37238;BME280;23129;49.662;8.448;2023-02-23T03:19:13;100329.72;;;9.41;100.00
37238;BME280;23129;49.662;8.448;2023-02-23T03:22:09;100328.81;;;9.42;100.00
37238;BME280;23129;49.662;8.448;2023-02-23T03:25:05;100324.47;;;9.41;100.00
37238;BME280;23129;49.662;8.448;2023-02-23T03:27:55;100330.63;;;9.40;100.00
37238;BME280;23129;49.662;8.448;2023-02-23T03:30:50;100328.00;;;9.40;100.00
37238;BME280;23129;49.662;8.448;2023-02-23T03:33:44;100336.72;;;9.39;100.00
37238;BME280;23129;49.662;8.448;2023-02-23T03:36:36;100331.50;;;9.39;100.00
37238;BME280;23129;49.662;8.448;2023-02-23T03:39:29;100332.41;;;9.38;100.00
37238;BME280;23129;49.662;8.448;2023-02-23T03:42:22;100330.66;;;9.38;100.00
37238;BME280;23129;49.662;8.448;2023-02-23T03:45:15;100328.00;;;9.40;100.00
37238;BME280;23129;49.662;8.448;2023-02-23T03:48:03;100328.00;;;9.40;100.00
37238;BME280;23129;49.662;8.448;2023-02-23T03:50:53;100330.63;;;9.40;100.00
37238;BME280;23129;49.662;8.448;2023-02-23T03:53:44;100330.56;;;9.42;100.00
37238;BME280;23129;49.662;8.448;2023-02-23T03:56:35;100323.66;;;9.39;100.00
37238;BME280;23129;49.662;8.448;2023-02-23T03:59:28;100334.94;;;9.41;100.00
37238;BME280;23129;49.662;8.448;2023-02-23T04:02:16;100331.41;;;9.42;100.00
37238;BME280;23129;49.662;8.448;2023-02-23T04:05:08;100333.16;;;9.43;100.00
37238;BME280;23129;49.662;8.448;2023-02-23T04:07:55;100331.41;;;9.42;100.00
37238;BME280;23129;49.662;8.448;2023-02-23T04:10:49;100336.66;;;9.42;100.00
37238;BME280;23129;49.662;8.448;2023-02-23T04:13:37;100336.66;;;9.42;100.00
37238;BME280;23129;49.662;8.448;2023-02-23T04:16:08;100337.56;;;9.41;100.00
37238;BME280;23129;49.662;8.448;2023-02-23T04:18:38;100335.81;;;9.42;100.00
37238;BME280;23129;49.662;8.448;2023-02-23T04:21:06;100335.88;;;9.40;100.00
37238;BME280;23129;49.662;8.448;2023-02-23T04:23:36;100339.34;;;9.41;100.00
37238;BME280;23129;49.662;8.448;2023-02-23T04:26:06;100338.47;;;9.40;100.00
37238;BME280;23129;49.662;8.448;2023-02-23T04:28:35;100334.09;;;9.41;100.00
37238;BME280;23129;49.662;8.448;2023-02-23T04:31:03;100338.47;;;9.40;100.00
37238;BME280;23129;49.662;8.448;2023-02-23T04:33:33;100333.25;;;9.40;100.00
37238;BME280;23129;49.662;8.448;2023-02-23T04:36:02;100342.84;;;9.40;100.00
37238;BME280;23129;49.662;8.448;2023-02-23T04:38:30;100339.34;;;9.39;100.00
37238;BME280;23129;49.662;8.448;2023-02-23T04:40:59;100344.59;;;9.39;100.00
37238;BME280;23129;49.662;8.448;2023-02-23T04:43:27;100338.50;;;9.38;100.00
37238;BME280;23129;49.662;8.448;2023-02-23T04:45:56;100345.50;;;9.38;100.00
37238;BME280;23129;49.662;8.448;2023-02-23T04:48:25;100345.50;;;9.38;100.00
37238;BME280;23129;49.662;8.448;2023-02-23T04:50:54;100347.25;;;9.37;100.00
37238;BME280;23129;49.662;8.448;2023-02-23T04:53:23;100349.88;;;9.37;100.00
37238;BME280;23129;49.662;8.448;2023-02-23T04:55:53;100351.63;;;9.37;100.00
37238;BME280;23129;49.662;8.448;2023-02-23T04:58:22;100340.31;;;9.36;100.00
37238;BME280;23129;49.662;8.448;2023-02-23T05:00:50;100349.03;;;9.37;100.00
37238;BME280;23129;49.662;8.448;2023-02-23T05:03:19;100351.59;;;9.38;100.00
37238;BME280;23129;49.662;8.448;2023-02-23T05:05:48;100342.84;;;9.40;100.00
37238;BME280;23129;49.662;8.448;2023-02-23T05:08:18;100347.22;;;9.39;100.00
37238;BME280;23129;49.662;8.448;2023-02-23T05:10:46;100351.56;;;9.40;100.00
37238;BME280;23129;49.662;8.448;2023-02-23T05:13:15;100354.19;;;9.40;100.00
37238;BME280;23129;49.662;8.448;2023-02-23T05:15:43;100348.09;;;9.40;100.00
37238;BME280;23129;49.662;8.448;2023-02-23T05:18:12;100348.09;;;9.40;100.00
37238;BME280;23129;49.662;8.448;2023-02-23T05:20:42;100354.19;;;9.40;100.00
37238;BME280;23129;49.662;8.448;2023-02-23T05:23:12;100351.56;;;9.40;100.00
37238;BME280;23129;49.662;8.448;2023-02-23T05:25:41;100354.19;;;9.40;100.00
37238;BME280;23129;49.662;8.448;2023-02-23T05:28:10;100350.72;;;9.40;100.00
37238;BME280;23129;49.662;8.448;2023-02-23T05:30:39;100355.06;;;9.39;100.00
37238;BME280;23129;49.662;8.448;2023-02-23T05:33:08;100350.72;;;9.38;100.00
37238;BME280;23129;49.662;8.448;2023-02-23T05:35:39;100350.72;;;9.38;100.00
37238;BME280;23129;49.662;8.448;2023-02-23T05:38:08;100349.03;;;9.37;100.00
37238;BME280;23129;49.662;8.448;2023-02-23T05:40:36;100350.72;;;9.38;100.00
37238;BME280;23129;49.662;8.448;2023-02-23T05:43:07;100349.81;;;9.39;100.00
37238;BME280;23129;49.662;8.448;2023-02-23T05:45:39;100349.81;;;9.39;100.00
37238;BME280;23129;49.662;8.448;2023-02-23T05:48:10;100353.31;;;9.40;100.00
37238;BME280;23129;49.662;8.448;2023-02-23T05:50:38;100356.81;;;9.40;100.00
37238;BME280;23129;49.662;8.448;2023-02-23T05:53:07;100364.66;;;9.40;100.00
37238;BME280;23129;49.662;8.448;2023-02-23T05:55:36;100360.28;;;9.39;100.00
37238;BME280;23129;49.662;8.448;2023-02-23T05:58:06;100362.06;;;9.38;100.00
37238;BME280;23129;49.662;8.448;2023-02-23T06:00:34;100357.72;;;9.37;100.00
37238;BME280;23129;49.662;8.448;2023-02-23T06:03:03;100364.72;;;9.37;100.00
37238;BME280;23129;49.662;8.448;2023-02-23T06:05:31;100360.38;;;9.36;100.00
37238;BME280;23129;49.662;8.448;2023-02-23T06:08:00;100357.75;;;9.36;100.00
37238;BME280;23129;49.662;8.448;2023-02-23T06:10:28;100359.50;;;9.37;100.00
37238;BME280;23129;49.662;8.448;2023-02-23T06:12:57;100361.25;;;9.36;100.00
37238;BME280;23129;49.662;8.448;2023-02-23T06:15:26;100369.09;;;9.36;100.00
37238;BME280;23129;49.662;8.448;2023-02-23T06:17:56;100363.88;;;9.36;100.00
37238;BME280;23129;49.662;8.448;2023-02-23T06:20:24;100366.50;;;9.36;100.00
37238;BME280;23129;49.662;8.448;2023-02-23T06:22:53;100369.97;;;9.37;100.00
37238;BME280;23129;49.662;8.448;2023-02-23T06:25:23;100373.38;;;9.39;100.00
37238;BME280;23129;49.662;8.448;2023-02-23T06:27:52;100380.34;;;9.40;100.00
37238;BME280;23129;49.662;8.448;2023-02-23T06:30:21;100374.22;;;9.41;100.00
37238;BME280;23129;49.662;8.448;2023-02-23T06:32:51;100377.66;;;9.43;100.00
37238;BME280;23129;49.662;8.448;2023-02-23T06:35:20;100376.75;;;9.44;100.00
37238;BME280;23129;49.662;8.448;2023-02-23T06:37:50;100372.34;;;9.46;100.00
37238;BME280;23129;49.662;8.448;2023-02-23T06:40:19;100379.28;;;9.49;100.00
37238;BME280;23129;49.662;8.448;2023-02-23T06:42:48;100382.69;;;9.51;100.00
37238;BME280;23129;49.662;8.448;2023-02-23T06:45:17;100390.53;;;9.52;100.00
37238;BME280;23129;49.662;8.448;2023-02-23T06:47:46;100388.75;;;9.54;100.00
37238;BME280;23129;49.662;8.448;2023-02-23T06:50:16;100392.16;;;9.56;100.00
37238;BME280;23129;49.662;8.448;2023-02-23T06:52:45;100389.53;;;9.58;100.00
37238;BME280;23129;49.662;8.448;2023-02-23T06:55:15;100391.22;;;9.59;100.00
37238;BME280;23129;49.662;8.448;2023-02-23T06:57:44;100399.06;;;9.60;100.00
37238;BME280;23129;49.662;8.448;2023-02-23T07:00:16;100401.63;;;9.62;100.00
37238;BME280;23129;49.662;8.448;2023-02-23T07:02:45;100403.34;;;9.63;100.00
37238;BME280;23129;49.662;8.448;2023-02-23T07:05:15;100408.56;;;9.65;100.00
37238;BME280;23129;49.662;8.448;2023-02-23T07:07:43;100405.94;;;9.65;100.00
37238;BME280;23129;49.662;8.448;2023-02-23T07:10:12;100414.63;;;9.67;100.00
37238;BME280;23129;49.662;8.448;2023-02-23T07:12:41;100411.09;;;9.68;100.00
37238;BME280;23129;49.662;8.448;2023-02-23T07:15:10;100401.47;;;9.68;100.00
37238;BME280;23129;49.662;8.448;2023-02-23T07:17:39;100417.97;;;9.72;100.00
37238;BME280;23129;49.662;8.448;2023-02-23T07:20:09;100416.19;;;9.74;100.00
37238;BME280;23129;49.662;8.448;2023-02-23T07:22:38;100417.91;;;9.75;100.00
37238;BME280;23129;49.662;8.448;2023-02-23T07:25:08;100417.03;;;9.76;100.00
37238;BME280;23129;49.662;8.448;2023-02-23T07:27:36;100425.72;;;9.76;100.00
37238;BME280;23129;49.662;8.448;2023-02-23T07:30:07;100424.78;;;9.79;100.00
37238;BME280;23129;49.662;8.448;2023-02-23T07:32:36;100416.00;;;9.81;100.00
37238;BME280;23129;49.662;8.448;2023-02-23T07:35:05;100426.34;;;9.86;100.00
37238;BME280;23129;49.662;8.448;2023-02-23T07:37:34;100428.00;;;9.90;100.00
37238;BME280;23129;49.662;8.448;2023-02-23T07:40:04;100418.31;;;9.94;100.00
37238;BME280;23129;49.662;8.448;2023-02-23T07:42:33;100426.03;;;9.98;100.00
37238;BME280;23129;49.662;8.448;2023-02-23T07:45:04;100425.88;;;10.04;100.00
37238;BME280;23129;49.662;8.448;2023-02-23T07:47:33;100431.03;;;10.07;100.00
37238;BME280;23129;49.662;8.448;2023-02-23T07:50:06;100425.72;;;10.11;100.00
37238;BME280;23129;49.662;8.448;2023-02-23T07:52:36;100432.69;;;10.12;100.00
37238;BME280;23129;49.662;8.448;2023-02-23T07:55:08;100433.47;;;10.15;100.00
37238;BME280;23129;49.662;8.448;2023-02-23T07:57:37;100429.94;;;10.16;100.00
37238;BME280;23129;49.662;8.448;2023-02-23T08:00:07;100426.44;;;10.17;100.00
37238;BME280;23129;49.662;8.448;2023-02-23T08:02:38;100430.78;;;10.17;100.00
37238;BME280;23129;49.662;8.448;2023-02-23T08:05:07;100434.25;;;10.19;100.00
37238;BME280;23129;49.662;8.448;2023-02-23T08:07:36;100437.69;;;10.21;100.00
37238;BME280;23129;49.662;8.448;2023-02-23T08:10:07;100443.72;;;10.23;100.00
37238;BME280;23129;49.662;8.448;2023-02-23T08:12:35;100441.03;;;10.26;100.00
37238;BME280;23129;49.662;8.448;2023-02-23T08:15:05;100444.50;;;10.28;100.00
37238;BME280;23129;49.662;8.448;2023-02-23T08:17:36;100446.25;;;10.29;100.00
37238;BME280;23129;49.662;8.448;2023-02-23T08:20:07;100448.81;;;10.31;100.00
37238;BME280;23129;49.662;8.448;2023-02-23T08:22:35;100451.41;;;10.32;100.00
37238;BME280;23129;49.662;8.448;2023-02-23T08:25:16;100455.69;;;10.35;100.00
37238;BME280;23129;49.662;8.448;2023-02-23T08:27:45;100449.47;;;10.39;100.00
37238;BME280;23129;49.662;8.448;2023-02-23T08:30:14;100456.31;;;10.44;100.00
37238;BME280;23129;49.662;8.448;2023-02-23T08:32:43;100448.28;;;10.50;100.00
37238;BME280;23129;49.662;8.448;2023-02-23T08:35:12;100451.63;;;10.56;100.00
37238;BME280;23129;49.662;8.448;2023-02-23T08:37:41;100452.34;;;10.62;100.00
37238;BME280;23129;49.662;8.448;2023-02-23T08:40:11;100450.41;;;10.69;100.00
37238;BME280;23129;49.662;8.448;2023-02-23T08:42:42;100452.78;;;10.77;100.00
37238;BME280;23129;49.662;8.448;2023-02-23T08:45:11;100449.09;;;10.84;100.00
37238;BME280;23129;49.662;8.448;2023-02-23T08:47:40;100456.72;;;10.91;100.00
37238;BME280;23129;49.662;8.448;2023-02-23T08:50:11;100449.56;;;10.98;100.00
37238;BME280;23129;49.662;8.448;2023-02-23T08:52:40;100456.38;;;11.04;100.00
37238;BME280;23129;49.662;8.448;2023-02-23T08:55:09;100460.50;;;11.12;100.00
37238;BME280;23129;49.662;8.448;2023-02-23T08:57:41;100454.97;;;11.22;100.00
37238;BME280;23129;49.662;8.448;2023-02-23T09:00:11;100455.19;;;11.43;100.00
37238;BME280;23129;49.662;8.448;2023-02-23T09:02:44;100463.94;;;11.71;100.00
37238;BME280;23129;49.662;8.448;2023-02-23T09:05:14;100451.91;;;11.92;100.00
37238;BME280;23129;49.662;8.448;2023-02-23T09:07:44;100452.09;;;12.12;100.00
37238;BME280;23129;49.662;8.448;2023-02-23T09:10:14;100447.13;;;12.29;100.00
37238;BME280;23129;49.662;8.448;2023-02-23T09:12:44;100456.22;;;12.44;100.00
37238;BME280;23129;49.662;8.448;2023-02-23T09:15:13;100457.56;;;12.56;100.00
37238;BME280;23129;49.662;8.448;2023-02-23T09:17:41;100456.56;;;12.60;100.00
37238;BME280;23129;49.662;8.448;2023-02-23T09:20:13;100461.59;;;12.66;100.00
37238;BME280;23129;49.662;8.448;2023-02-23T09:22:42;100464.13;;;12.69;100.00
37238;BME280;23129;49.662;8.448;2023-02-23T09:25:15;100454.47;;;12.68;100.00
37238;BME280;23129;49.662;8.448;2023-02-23T09:27:46;100460.44;;;12.73;100.00
37238;BME280;23129;49.662;8.448;2023-02-23T09:30:16;100464.69;;;12.77;100.00
37238;BME280;23129;49.662;8.448;2023-02-23T09:32:47;100472.50;;;12.81;100.00
37238;BME280;23129;49.662;8.448;2023-02-23T09:35:17;100460.69;;;12.91;100.00
37238;BME280;23129;49.662;8.448;2023-02-23T09:37:48;100470.53;;;13.09;100.00
37238;BME280;23129;49.662;8.448;2023-02-23T09:40:19;100465.97;;;13.38;100.00
37238;BME280;23129;49.662;8.448;2023-02-23T09:42:58;100466.81;;;13.60;100.00
37238;BME280;23129;49.662;8.448;2023-02-23T09:45:37;100470.13;;;13.65;100.00
37238;BME280;23129;49.662;8.448;2023-02-23T09:48:15;100464.00;;;13.65;100.00
37238;BME280;23129;49.662;8.448;2023-02-23T09:50:48;100461.53;;;13.60;100.00
37238;BME280;23129;49.662;8.448;2023-02-23T09:53:38;100467.13;;;13.53;100.00
37238;BME280;23129;49.662;8.448;2023-02-23T09:56:15;100469.25;;;13.43;100.00
37238;BME280;23129;49.662;8.448;2023-02-23T09:58:46;100469.63;;;13.34;100.00
37238;BME280;23129;49.662;8.448;2023-02-23T10:01:48;100468.16;;;13.27;100.00
37238;BME280;23129;49.662;8.448;2023-02-23T10:04:22;100472.75;;;13.20;100.00
37238;BME280;23129;49.662;8.448;2023-02-23T10:06:57;100481.78;;;13.13;100.00
37238;BME280;23129;49.662;8.448;2023-02-23T10:09:41;100478.50;;;13.08;100.00
37238;BME280;23129;49.662;8.448;2023-02-23T10:12:21;100485.50;;;13.07;100.00
37238;BME280;23129;49.662;8.448;2023-02-23T10:15:13;100484.63;;;13.08;100.00
37238;BME280;23129;49.662;8.448;2023-02-23T10:17:51;100482.69;;;13.13;100.00
37238;BME280;23129;49.662;8.448;2023-02-23T10:20:29;100485.97;;;13.18;100.00
37238;BME280;23129;49.662;8.448;2023-02-23T10:23:06;100476.75;;;13.32;100.00
37238;BME280;23129;49.662;8.448;2023-02-23T10:25:44;100485.75;;;13.48;100.00
37238;BME280;23129;49.662;8.448;2023-02-23T10:28:17;100485.56;;;13.75;100.00
37238;BME280;23129;49.662;8.448;2023-02-23T10:30:49;100483.16;;;13.90;100.00
37238;BME280;23129;49.662;8.448;2023-02-23T10:33:22;100479.16;;;14.02;100.00
37238;BME280;23129;49.662;8.448;2023-02-23T10:35:57;100481.22;;;14.16;100.00
37238;BME280;23129;49.662;8.448;2023-02-23T10:38:40;100482.28;;;14.32;100.00
37238;BME280;23129;49.662;8.448;2023-02-23T10:41:09;100485.31;;;14.44;100.00
37238;BME280;23129;49.662;8.448;2023-02-23T10:43:40;100480.53;;;14.53;100.00
37238;BME280;23129;49.662;8.448;2023-02-23T10:46:18;100486.44;;;14.60;100.00
37238;BME280;23129;49.662;8.448;2023-02-23T10:48:49;100492.16;;;14.70;100.00
37238;BME280;23129;49.662;8.448;2023-02-23T10:51:24;100486.59;;;14.76;100.00
37238;BME280;23129;49.662;8.448;2023-02-23T10:53:54;100482.03;;;14.79;100.00
37238;BME280;23129;49.662;8.448;2023-02-23T10:56:23;100485.38;;;14.83;100.00
37238;BME280;23129;49.662;8.448;2023-02-23T10:58:55;100490.75;;;14.81;100.00
37238;BME280;23129;49.662;8.448;2023-02-23T11:01:36;100486.31;;;14.82;100.00
37238;BME280;23129;49.662;8.448;2023-02-23T11:04:27;100481.75;;;14.86;100.00
37238;BME280;23129;49.662;8.448;2023-02-23T11:07:07;100480.34;;;14.97;100.00
37238;BME280;23129;49.662;8.448;2023-02-23T11:09:36;100479.06;;;15.06;100.00
37238;BME280;23129;49.662;8.448;2023-02-23T11:12:19;100480.19;;;15.19;100.00
37238;BME280;23129;49.662;8.448;2023-02-23T11:14:51;100477.50;;;15.21;100.00
37238;BME280;23129;49.662;8.448;2023-02-23T11:17:28;100480.84;;;15.24;100.00
37238;BME280;23129;49.662;8.448;2023-02-23T11:20:04;100480.81;;;15.26;100.00
37238;BME280;23129;49.662;8.448;2023-02-23T11:22:35;100481.72;;;15.25;100.00
37238;BME280;23129;49.662;8.448;2023-02-23T11:25:23;100480.16;;;15.21;100.00
37238;BME280;23129;49.662;8.448;2023-02-23T11:27:53;100473.06;;;15.21;100.00
37238;BME280;23129;49.662;8.448;2023-02-23T11:30:26;100472.88;;;15.26;100.00
37238;BME280;23129;49.662;8.448;2023-02-23T11:33:00;100470.28;;;15.24;100.00
37238;BME280;23129;49.662;8.448;2023-02-23T11:35:37;100471.13;;;15.25;100.00
37238;BME280;23129;49.662;8.448;2023-02-23T11:38:19;100469.44;;;15.24;100.00
37238;BME280;23129;49.662;8.448;2023-02-23T11:41:00;100467.22;;;15.15;100.00
37238;BME280;23129;49.662;8.448;2023-02-23T11:43:30;100464.16;;;15.05;100.00
37238;BME280;23129;49.662;8.448;2023-02-23T11:46:00;100466.06;;;15.01;100.00
37238;BME280;23129;49.662;8.448;2023-02-23T11:48:34;100462.50;;;15.02;100.00
37238;BME280;23129;49.662;8.448;2023-02-23T11:51:04;100468.84;;;14.98;100.00
37238;BME280;23129;49.662;8.448;2023-02-23T11:53:38;100469.78;;;14.97;100.00
37238;BME280;23129;49.662;8.448;2023-02-23T11:56:07;100462.78;;;14.96;100.00
37238;BME280;23129;49.662;8.448;2023-02-23T11:58:39;100455.34;;;15.04;100.00
37238;BME280;23129;49.662;8.448;2023-02-23T12:01:14;100453.03;;;15.17;100.00
37238;BME280;23129;49.662;8.448;2023-02-23T12:03:48;100457.34;;;15.37;100.00
37238;BME280;23129;49.662;8.448;2023-02-23T12:06:30;100452.03;;;15.75;100.00
37238;BME280;23129;49.662;8.448;2023-02-23T12:09:08;100453.63;;;16.14;100.00
37238;BME280;23129;49.662;8.448;2023-02-23T12:11:50;100445.03;;;16.43;100.00
37238;BME280;23129;49.662;8.448;2023-02-23T12:14:28;100441.88;;;16.70;100.00
37238;BME280;23129;49.662;8.448;2023-02-23T12:17:02;100438.66;;;16.81;100.00
37238;BME280;23129;49.662;8.448;2023-02-23T12:19:40;100438.09;;;16.74;100.00
37238;BME280;23129;49.662;8.448;2023-02-23T12:22:15;100434.78;;;16.71;100.00
37238;BME280;23129;49.662;8.448;2023-02-23T12:24:51;100429.13;;;16.78;100.00
37238;BME280;23129;49.662;8.448;2023-02-23T12:27:26;100431.34;;;17.02;100.00
37238;BME280;23129;49.662;8.448;2023-02-23T12:30:07;100434.09;;;17.16;100.00
37238;BME280;23129;49.662;8.448;2023-02-23T12:32:46;100436.31;;;17.08;100.00
37238;BME280;23129;49.662;8.448;2023-02-23T12:35:22;100430.16;;;16.92;100.00
37238;BME280;23129;49.662;8.448;2023-02-23T12:38:01;100433.13;;;16.85;100.00
37238;BME280;23129;49.662;8.448;2023-02-23T12:40:34;100431.91;;;16.75;100.00
37238;BME280;23129;49.662;8.448;2023-02-23T12:43:11;100426.66;;;16.74;100.00
37238;BME280;23129;49.662;8.448;2023-02-23T12:45:45;100421.00;;;17.13;100.00
37238;BME280;23129;49.662;8.448;2023-02-23T12:48:30;100404.13;;;17.77;100.00
37238;BME280;23129;49.662;8.448;2023-02-23T12:51:10;100405.56;;;18.42;100.00
37238;BME280;23129;49.662;8.448;2023-02-23T12:53:45;100407.38;;;18.99;100.00
37238;BME280;23129;49.662;8.448;2023-02-23T12:56:52;100398.50;;;19.27;100.00
37238;BME280;23129;49.662;8.448;2023-02-23T13:00:03;100404.63;;;19.14;100.00
37238;BME280;23129;49.662;8.448;2023-02-23T13:02:49;100404.78;;;19.11;100.00
37238;BME280;23129;49.662;8.448;2023-02-23T13:05:25;100406.59;;;19.11;100.00
37238;BME280;23129;49.662;8.448;2023-02-23T13:08:05;100403.69;;;19.01;100.00
37238;BME280;23129;49.662;8.448;2023-02-23T13:10:49;100405.25;;;18.77;100.00
37238;BME280;23129;49.662;8.448;2023-02-23T13:13:30;100407.47;;;18.54;100.00
37238;BME280;23129;49.662;8.448;2023-02-23T13:16:09;100403.75;;;18.42;100.00
37238;BME280;23129;49.662;8.448;2023-02-23T13:18:44;100413.34;;;18.31;100.00
37238;BME280;23129;49.662;8.448;2023-02-23T13:21:16;100403.28;;;18.21;100.00
37238;BME280;23129;49.662;8.448;2023-02-23T13:23:57;100398.03;;;18.06;100.00
37238;BME280;23129;49.662;8.448;2023-02-23T13:26:35;100402.31;;;18.08;100.00
37238;BME280;23129;49.662;8.448;2023-02-23T13:29:16;100397.38;;;18.02;100.00
37238;BME280;23129;49.662;8.448;2023-02-23T13:31:48;100403.59;;;17.87;100.00
37238;BME280;23129;49.662;8.448;2023-02-23T13:34:25;100404.81;;;17.65;100.00
37238;BME280;23129;49.662;8.448;2023-02-23T13:36:54;100407.56;;;17.48;100.00